Αναφορές METAR Αεροδρομίων

 

LGTS - THESSALONIKI - GREECE
Ενημερώθηκε: 22/07/2018 09:20
Αίθριος
Αίθριος
 Ανεμος από varies
Ανεμος: varies 6 km/h
Θερμοκρασία: 28°C
Heat Index: 28°C
Σημείο Δρόσου: 14°C
Υγρασία: 42%
Βαρόμετρο: 1011 hPa
Περίληψη: Αίθριος
Visibility: greater than 10 km
2018/07/22 06:20 LGTS 220620Z VRB03KT CAVOK 28/14 Q1011 NOSIG
LGLR - LARTISA - GREECE
Ενημερώθηκε: 22/07/2018 08:50
Αίθριος
Αίθριος
 Ανεμος από calm
Ανεμος: Απνοια
Θερμοκρασία: 25°C
Σημείο Δρόσου: 16°C
Υγρασία: 57%
Βαρόμετρο: 1012 hPa
Περίληψη: Αίθριος
Visibility: greater than 10 km
2018/07/22 05:50 LGLR 220550Z 00000KT CAVOK 25/16 Q1012 BLU
 
LGKZ - KOZANI - GREECE
Ενημερώθηκε: 22/07/2018 08:50
Αίθριος
Αίθριος
 Ανεμος από calm
Ανεμος: Απνοια
Θερμοκρασία: 24°C
Σημείο Δρόσου: 8°C
Υγρασία: 36%
Βαρόμετρο: 1015 hPa
Περίληψη: Αίθριος
Visibility: greater than 10 km
2018/07/22 05:50 LGKZ 220550Z 00000KT CAVOK 24/08 Q1015
LGKV - KAVALA - GREECE
Ενημερώθηκε: 22/07/2018 09:20
Αίθριος
Αίθριος
 Ανεμος από calm
Ανεμος: Απνοια
Θερμοκρασία: 27°C
Heat Index: 28°C
Σημείο Δρόσου: 19°C
Υγρασία: 62%
Βαρόμετρο: 1010 hPa
Περίληψη: Αίθριος
Visibility: greater than 10 km
2018/07/22 06:20 LGKV 220620Z 00000KT CAVOK 27/19 Q1010
 
LGIO - IOANNINA - GREECE
Ενημερώθηκε: 22/07/2018 09:20
Αίθριος
Αίθριος
 Ανεμος από varies
Ανεμος: varies 0 km/h
Θερμοκρασία: 20°C
Σημείο Δρόσου: 17°C
Υγρασία: 83%
Βαρόμετρο: 1015 hPa
Περίληψη: Αίθριος
Visibility: greater than 10 km
2018/07/22 06:20 LGIO 220620Z /////KT CAVOK 20/17 Q1015
LGBL - BOLOS - GREECE
Ενημερώθηκε: 22/07/2018 09:20
Αίθριος
Αίθριος
 Ανεμος από calm
Ανεμος: Απνοια
Θερμοκρασία: 29°C
Heat Index: 29°C
Σημείο Δρόσου: 16°C
Υγρασία: 45%
Βαρόμετρο: 1011 hPa
Περίληψη: Αίθριος
Visibility: greater than 10 km
2018/07/22 06:20 LGBL 220620Z 00000KT CAVOK 29/16 Q1011
 
LGMT - MITILINI - GREECE
Ενημερώθηκε: 22/07/2018 09:20
Αίθριος
Αίθριος
 Ανεμος από ΒΔ
Ανεμος: ΒΔ 9 km/h
Θερμοκρασία: 28°C
Heat Index: 30°C
Σημείο Δρόσου: 21°C
Υγρασία: 66%
Βαρόμετρο: 1011 hPa
Περίληψη: Αίθριος
Visibility: greater than 10 km
2018/07/22 06:20 LGMT 220620Z 32005KT 220V360 CAVOK 28/21 Q1011
LGAV - ATHENS - GREECE
Ενημερώθηκε: 22/07/2018 09:20
Αίθριος
Αίθριος
 Ανεμος από varies
Ανεμος: varies 4 km/h
Θερμοκρασία: 30°C
Σημείο Δρόσου: 14°C
Υγρασία: 38%
Βαρόμετρο: 1012 hPa
Περίληψη: Αίθριος
Visibility: greater than 10 km
2018/07/22 06:20 LGAV 220620Z VRB02KT CAVOK 30/14 Q1012 NOSIG
 
LGRP - RODOS - GREECE
Ενημερώθηκε: 22/07/2018 09:20
Αίθριος
Αίθριος
 Ανεμος από ΔΝΔ
Ανεμος: ΔΝΔ 24 km/h
Θερμοκρασία: 29°C
Heat Index: 31°C
Σημείο Δρόσου: 21°C
Υγρασία: 62%
Βαρόμετρο: 1007 hPa
Περίληψη: Αίθριος
Visibility: greater than 10 km
2018/07/22 06:20 LGRP 220620Z 25013KT CAVOK 29/21 Q1007 NOSIG
LGIR - HRAKLIO/KRITI - GREECE
Ενημερώθηκε: 22/07/2018 09:20
Αίθριος
Αίθριος
 Ανεμος από calm
Ανεμος: Απνοια
Θερμοκρασία: 29°C
Heat Index: 31°C
Σημείο Δρόσου: 21°C
Υγρασία: 62%
Βαρόμετρο: 1011 hPa
Περίληψη: Αίθριος
Visibility: greater than 10 km
2018/07/22 06:20 LGIR 220620Z 00000KT CAVOK 29/21 Q1011 NOSIG
 
LGMK - MIKONOS - GREECE
Ενημερώθηκε: 22/07/2018 09:20
Αίθριος
Αίθριος
 Ανεμος από Β
Ανεμος: Β 19 km/h
Θερμοκρασία: 29°C
Heat Index: 29°C
Σημείο Δρόσου: 18°C
Υγρασία: 51%
Βαρόμετρο: 1011 hPa
Περίληψη: Αίθριος
Visibility: greater than 10 km
2018/07/22 06:20 LGMK 220620Z 35010KT CAVOK 29/18 Q1011
LGKR - KERKIRA - GREECE
Ενημερώθηκε: 22/07/2018 09:20
Μερικώς νεφελώδης
Μερικώς νεφελώδης
 Ανεμος από ΝΑ
Ανεμος: ΝΑ 6 km/h
Θερμοκρασία: 24°C
Σημείο Δρόσου: 22°C
Υγρασία: 89%
Βαρόμετρο: 1012 hPa
Clouds: Μερικώς νεφελώδης
Visibility: 10 km
Cloud details: Αραιές Νεφώσεις 244 m
Μερικώς νεφελώδης 2134 m
2018/07/22 06:20 LGKR 220620Z 14003KT 9999 FEW008 SCT070 24/22 Q1012 NOSIG